Atmospheric History
02/08/2018 19:46  to  2/9/2018 19:46
Change End Date:
To complete the export process:
1) Select all of the data below
2) Copy the data to the clipboard
3) Open a word processor such as Notepad
4) Paste the data into the word processor
5) Save the file

Date/Time (MST), AirTemp, RH, Dewpoint ,AvgWindSpeed, GustWindSpeed, WindDirection, PrecipType, PrecipIntensity, PrecipAccumulation, PrecipRate
02/09/2018 19:43, 2, 78, -3 ,2, 2, S, None, None, ,  
02/09/2018 19:40, 2, 78, -3 ,2, 2, S, None, None, ,  
02/09/2018 19:30, 2, 78, -3 ,3, 7, E, None, None, ,  
02/09/2018 19:28, 2, 79, -3 ,4, 7, E, None, None, ,  
02/09/2018 19:20, 2, 77, -4 ,6, 7, E, None, None, ,  
02/09/2018 19:14, 3, 77, -3 ,6, 7, E, None, None, ,  
02/09/2018 19:10, 3, 78, -2 ,6, 6, E, None, None, ,  
02/09/2018 19:00, 4, 77, -2 ,5, 6, E, Yes, , ,  
02/09/2018 18:58, 4, 77, -1 ,4, 6, SE, None, None, ,  
02/09/2018 18:50, 5, 77, -1 ,5, 6, SE, Yes, , ,  
02/09/2018 18:43, 5, 75, -1 ,4, 4, SE, Yes, , ,  
02/09/2018 18:40, 5, 74, -1 ,2, 4, SE, Yes, , ,  
02/09/2018 18:30, 5, 74, -1 ,4, 4, S, None, None, ,  
02/09/2018 18:28, 6, 74, -1 ,4, 4, S, None, None, ,  
02/09/2018 18:20, 6, 74, -1 ,2, 2, SE, None, None, ,  
02/09/2018 18:13, 6, 73, -1 ,1, 2, SE, None, None, ,  
02/09/2018 18:10, 6, 74, -1 ,1, 2, SE, None, None, ,  
02/09/2018 18:00, 6, 74, -1 ,2, 3, E, Yes, , ,  
02/09/2018 17:58, 6, 74, -1 ,2, 3, E, None, None, ,  
02/09/2018 17:50, 6, 73, -1 ,3, 4, SE, Yes, , ,  
02/09/2018 17:43, 6, 73, -1 ,2, 3, SE, None, None, ,  
02/09/2018 17:40, 6, 73, -1 ,2, 2, SE, None, None, ,  
02/09/2018 17:30, 6, 72, -1 ,2, 3, S, None, None, ,  
02/09/2018 17:28, 6, 72, -1 ,2, 3, S, None, None, ,  
02/09/2018 17:20, 6, 72, -1 ,2, 3, SE, Yes, , ,  
02/09/2018 17:13, 6, 70, -2 ,2, 2, SE, Yes, , ,  
02/09/2018 17:10, 6, 69, -1 ,1, 2, SE, None, None, ,  
02/09/2018 17:00, 6, 70, -1 ,0, 2, SE, None, None, ,  
02/09/2018 16:58, 6, 70, -1 ,1, 2, SE, None, None, ,  
02/09/2018 16:50, 6, 67, -2 ,2, 2, SE, None, None, ,  
02/09/2018 16:43, 7, 66, -2 ,2, 3, SE, None, None, ,  
02/09/2018 16:39, 7, 64, -3 ,2, 3, SE, None, None, ,  
02/09/2018 16:29, 7, 62, -3 ,0, 3, SE, None, None, ,  
02/09/2018 16:28, 7, 62, -3 ,1, 3, SE, None, None, ,  
02/09/2018 16:19, 8, 61, -3 ,1, 2, E, None, None, ,  
02/09/2018 16:13, 9, 61, -2 ,0, 1, SE, None, None, ,  
02/09/2018 16:09, 9, 60, -2 ,0, 1, W, None, None, ,  
02/09/2018 15:59, 8, 61, -3 ,0, 1, NW, None, None, ,  
02/09/2018 15:58, 8, 61, -3 ,0, 2, NW, None, None, ,  
02/09/2018 15:49, 7, 62, -3 ,2, 3, W, None, None, ,  
02/09/2018 15:43, 7, 62, -3 ,2, 3, W, Yes, , ,  
02/09/2018 15:39, 7, 60, -4 ,1, 3, NW, None, None, ,  
02/09/2018 15:29, 8, 61, -3 ,2, 3, W, None, None, ,  
02/09/2018 15:28, 8, 61, -3 ,2, 3, SW, None, None, ,  
02/09/2018 15:19, 6, 64, -3 ,3, 4, W, Yes, , ,  
02/09/2018 15:13, 7, 63, -3 ,3, 6, SW, Yes, , ,  
02/09/2018 15:09, 7, 64, -3 ,4, 6, W, Yes, , ,  
02/09/2018 14:59, 7, 62, -3 ,3, 6, W, None, None, ,  
02/09/2018 14:58, 7, 62, -3 ,3, 5, W, None, None, ,  
02/09/2018 14:49, 8, 62, -2 ,0, 2, NE, Yes, , ,  
02/09/2018 14:43, 7, 63, -3 ,1, 3, E, Yes, , ,  
02/09/2018 14:39, 7, 64, -2 ,2, 3, E, None, None, ,  
02/09/2018 14:29, 6, 65, -3 ,1, 4, N, None, None, ,  
02/09/2018 14:28, 6, 65, -3 ,1, 4, N, None, None, ,  
02/09/2018 14:19, 6, 64, -4 ,6, 7, SW, Yes, , ,  
02/09/2018 14:13, 6, 63, -4 ,4, 6, SW, Yes, , ,  
02/09/2018 14:09, 6, 64, -3 ,5, 6, W, Yes, , ,  
02/09/2018 13:59, 6, 64, -4 ,4, 7, W, Yes, , ,  
02/09/2018 13:58, 6, 64, -4 ,4, 7, W, Yes, , ,  
02/09/2018 13:49, 6, 64, -4 ,4, 5, W, Yes, , ,  
02/09/2018 13:43, 6, 64, -4 ,3, 5, W, Yes, , ,  
02/09/2018 13:39, 6, 65, -3 ,2, 4, SW, Yes, , ,  
02/09/2018 13:29, 6, 63, -3 ,2, 4, SE, Yes, , ,  
02/09/2018 13:28, 6, 63, -3 ,2, 4, SE, Yes, , ,  
02/09/2018 13:19, 6, 61, -4 ,0, 4, N, Yes, , ,  
02/09/2018 13:08, 6, 59, -5 ,2, 4, W, Yes, , ,  
02/09/2018 12:58, 6, 62, -5 ,1, 4, W, Yes, , ,  
02/09/2018 12:58, 6, 62, -5 ,1, 4, W, Yes, , ,  
02/09/2018 12:48, 5, 61, -5 ,2, 4, S, None, None, ,  
02/09/2018 12:43, 6, 62, -4 ,2, 3, SW, Yes, , ,  
02/09/2018 12:38, 5, 60, -5 ,2, 3, SW, Yes, , ,  
02/09/2018 12:28, 6, 61, -5 ,2, 3, SW, Yes, , ,  
02/09/2018 12:28, 6, 61, -5 ,2, 3, S, Yes, , ,  
02/09/2018 12:18, 6, 59, -5 ,0, 3, S, Yes, , ,  
02/09/2018 12:13, 6, 62, -4 ,2, 7, N, Yes, , ,  
02/09/2018 12:08, 5, 61, -5 ,4, 9, E, Yes, , ,  
02/09/2018 11:58, 5, 58, -7 ,7, 13, NE, Yes, , ,  
02/09/2018 11:58, 5, 58, -7 ,7, 13, NE, Yes, , ,  
02/09/2018 11:48, 4, 57, -7 ,8, 14, N, None, None, ,  
02/09/2018 11:43, 4, 57, -8 ,11, 14, N, None, None, ,  
02/09/2018 11:38, 5, 58, -7 ,7, 12, N, None, None, ,  
02/09/2018 11:28, 4, 60, -7 ,7, 15, NE, Yes, , ,  
02/09/2018 11:28, 4, 59, -7 ,7, 15, NE, Yes, , ,  
02/09/2018 11:18, 4, 58, -8 ,7, 14, NE, None, None, ,  
02/09/2018 11:13, 3, 59, -8 ,8, 12, NE, None, None, ,  
02/09/2018 11:08, 3, 60, -7 ,7, 12, NE, None, None, ,  
02/09/2018 10:58, 3, 60, -8 ,11, 14, NE, None, None, ,  
02/09/2018 10:58, 3, 60, -7 ,11, 14, NE, None, None, ,  
02/09/2018 10:48, 3, 62, -7 ,10, 16, N, Yes, , ,  
02/09/2018 10:43, 3, 64, -6 ,9, 14, NE, Yes, , ,  
02/09/2018 10:38, 2, 63, -7 ,4, 19, E, Yes, , ,  
02/09/2018 10:28, 2, 66, -7 ,7, 11, N, None, None, ,  
02/09/2018 10:28, 2, 66, -7 ,6, 11, NE, Yes, , ,  
02/09/2018 10:18, 2, 69, -6 ,1, 7, E, Yes, , ,  
02/09/2018 10:08, 2, 65, -7 ,7, 12, NE, None, None, ,  
02/09/2018 09:58, 1, 64, -8 ,11, 14, N, None, None, ,  
02/09/2018 09:58, 2, 65, -8 ,9, 14, N, None, None, ,  
02/09/2018 09:47, 1, 64, -8 ,11, 17, N, None, None, ,  
02/09/2018 09:43, 1, 65, -8 ,10, 17, NE, Yes, , ,  
02/09/2018 09:37, 0, 65, -9 ,12, 17, NE, None, None, ,  
02/09/2018 09:28, 0, 69, -8 ,9, 15, NE, Yes, , ,  
02/09/2018 09:27, 0, 69, -8 ,8, 15, N, Yes, , ,  
02/09/2018 09:17, -1, 68, -9 ,10, 21, N, Yes, , ,  
02/09/2018 09:13, -1, 67, -9 ,11, 21, NE, None, None, ,  
02/09/2018 09:07, -1, 65, -10 ,14, 21, NE, None, None, ,  
02/09/2018 08:58, -1, 64, -10 ,14, 22, NE, None, None, ,  
02/09/2018 08:57, -1, 64, -10 ,15, 22, NE, None, None, ,  
02/09/2018 08:47, -1, 66, -9 ,16, 20, N, None, None, ,  
02/09/2018 08:43, -1, 67, -9 ,16, 20, N, None, None, ,  
02/09/2018 08:37, -1, 66, -10 ,16, 20, N, None, None, ,  
02/09/2018 08:28, -1, 65, -10 ,15, 21, NE, None, None, ,  
02/09/2018 08:27, -1, 65, -10 ,17, 21, NE, Yes, , ,  
02/09/2018 08:17, -1, 65, -10 ,14, 22, N, None, None, ,  
02/09/2018 08:13, -1, 65, -10 ,16, 22, N, None, None, ,  
02/09/2018 08:07, -1, 64, -10 ,17, 24, NE, None, None, ,  
02/09/2018 07:58, -1, 64, -10 ,17, 24, N, None, None, ,  
02/09/2018 07:57, -1, 64, -10 ,16, 25, NE, None, None, ,  
02/09/2018 07:47, -1, 63, -11 ,17, 24, NE, None, None, ,  
02/09/2018 07:43, -1, 64, -10 ,17, 23, NE, None, None, ,  
02/09/2018 07:37, -1, 63, -11 ,16, 24, N, None, None, ,  
02/09/2018 07:28, -1, 64, -10 ,18, 24, NE, None, None, ,  
02/09/2018 07:27, -1, 64, -10 ,15, 22, NE, None, None, ,  
02/09/2018 07:17, -1, 65, -10 ,14, 21, NE, Yes, , ,  
02/09/2018 07:13, -1, 66, -10 ,16, 22, NE, None, None, ,  
02/09/2018 07:07, -1, 68, -9 ,17, 22, NE, None, None, ,  
02/09/2018 06:58, -1, 68, -9 ,16, 22, NE, None, None, ,  
02/09/2018 06:57, -1, 67, -9 ,16, 22, N, Yes, , ,  
02/09/2018 06:47, -1, 66, -10 ,15, 21, N, None, None, ,  
02/09/2018 06:43, -1, 66, -10 ,16, 21, NE, None, None, ,  
02/09/2018 06:37, -1, 67, -9 ,13, 20, N, None, None, ,  
02/09/2018 06:28, -1, 65, -10 ,13, 22, NE, None, None, ,  
02/09/2018 06:26, -1, 64, -10 ,15, 22, NE, None, None, ,  
02/09/2018 06:16, -1, 65, -10 ,15, 21, NE, None, None, ,  
02/09/2018 06:13, -1, 64, -10 ,12, 17, NE, None, None, ,  
02/09/2018 06:06, -1, 67, -9 ,12, 18, N, Yes, , ,  
02/09/2018 05:58, -1, 67, -9 ,12, 18, NE, Yes, , ,  
02/09/2018 05:56, -1, 67, -9 ,11, 19, NE, None, None, ,  
02/09/2018 05:46, -1, 70, -9 ,16, 22, NE, None, None, ,  
02/09/2018 05:43, -1, 69, -9 ,14, 24, NE, Yes, , ,  
02/09/2018 05:36, -1, 67, -9 ,19, 25, NE, None, None, ,  
02/09/2018 05:28, -1, 66, -9 ,16, 23, NE, None, None, ,  
02/09/2018 05:26, -1, 66, -9 ,15, 24, NE, Yes, , ,  
02/09/2018 05:16, -1, 65, -10 ,16, 25, NE, None, None, ,  
02/09/2018 05:13, -1, 64, -10 ,17, 25, NE, None, None, ,  
02/09/2018 05:06, -1, 64, -10 ,17, 24, NE, Yes, , ,  
02/09/2018 04:58, -1, 62, -10 ,16, 25, NE, None, None, ,  
02/09/2018 04:56, 0, 62, -10 ,19, 25, NE, None, None, ,  
02/09/2018 04:46, -1, 65, -10 ,16, 23, NE, None, None, ,  
02/09/2018 04:43, -1, 64, -10 ,17, 23, NE, None, None, ,  
02/09/2018 04:36, -1, 63, -10 ,15, 24, NE, None, None, ,  
02/09/2018 04:28, -1, 62, -10 ,15, 21, NE, None, None, ,  
02/09/2018 04:26, -1, 62, -10 ,14, 26, NE, None, None, ,  
02/09/2018 04:16, -1, 63, -10 ,14, 27, NE, None, None, ,  
02/09/2018 04:13, -1, 64, -10 ,16, 27, NE, None, None, ,  
02/09/2018 04:06, -1, 67, -9 ,15, 25, NE, None, None, ,  
02/09/2018 03:58, -1, 64, -10 ,14, 23, NE, None, None, ,  
02/09/2018 03:56, -1, 64, -10 ,16, 25, NE, None, None, ,  
02/09/2018 03:46, -1, 64, -10 ,17, 24, NE, None, None, ,  
02/09/2018 03:43, -1, 64, -10 ,14, 30, N, None, None, ,  
02/09/2018 03:36, -1, 66, -9 ,22, 30, NE, None, None, ,  
02/09/2018 03:28, -1, 64, -10 ,19, 28, NE, None, None, ,  
02/09/2018 03:26, -1, 64, -10 ,17, 28, NE, None, None, ,  
02/09/2018 03:16, -1, 68, -9 ,19, 28, NE, None, None, ,  
02/09/2018 03:13, -1, 68, -9 ,19, 28, NE, None, None, ,  
02/09/2018 03:06, -1, 66, -9 ,13, 25, N, None, None, ,  
02/09/2018 02:58, -1, 67, -9 ,15, 22, NE, None, None, ,  
02/09/2018 02:56, -1, 67, -9 ,16, 23, NE, Yes, , ,  
02/09/2018 02:45, -1, 67, -9 ,22, 29, N, None, None, ,  
02/09/2018 02:43, -1, 67, -9 ,19, 27, N, None, None, ,  
02/09/2018 02:35, -1, 66, -9 ,16, 25, N, None, None, ,  
02/09/2018 02:28, -1, 65, -9 ,17, 25, N, None, None, ,  
02/09/2018 02:25, 0, 65, -9 ,17, 25, NE, None, None, ,  
02/09/2018 02:15, -1, 67, -9 ,13, 24, NE, None, None, ,  
02/09/2018 02:13, -1, 68, -9 ,15, 24, N, None, None, ,  
02/09/2018 02:05, 0, 69, -8 ,17, 24, N, None, None, ,  
02/09/2018 01:58, 0, 70, -8 ,14, 20, NE, None, None, ,  
02/09/2018 01:55, 0, 70, -8 ,15, 20, NE, None, None, ,  
02/09/2018 01:45, 0, 68, -8 ,14, 20, NE, Yes, , ,  
02/09/2018 01:43, 0, 66, -9 ,13, 20, NE, None, None, ,  
02/09/2018 01:35, 0, 64, -9 ,12, 21, NE, None, None, ,  
02/09/2018 01:28, 0, 66, -9 ,10, 29, N, None, None, ,  
02/09/2018 01:25, 0, 66, -9 ,13, 29, NE, None, None, ,  
02/09/2018 01:15, 0, 66, -9 ,18, 27, N, None, None, ,  
02/09/2018 01:13, 0, 67, -9 ,22, 32, N, None, None, ,  
02/09/2018 01:05, 0, 66, -9 ,23, 32, N, None, None, ,  
02/09/2018 00:58, 0, 68, -8 ,9, 30, N, Yes, , ,  
02/09/2018 00:55, 0, 70, -8 ,18, 30, NE, None, None, ,  
02/09/2018 00:45, 0, 72, -7 ,20, 29, N, None, None, ,  
02/09/2018 00:43, 0, 73, -7 ,19, 29, N, None, None, ,  
02/09/2018 00:35, 0, 71, -7 ,25, 34, N, None, None, ,  
02/09/2018 00:28, 0, 68, -8 ,25, 35, N, None, None, ,  
02/09/2018 00:25, 0, 69, -8 ,25, 35, N, None, None, ,  
02/09/2018 00:15, 0, 69, -7 ,24, 33, N, None, None, ,  
02/09/2018 00:13, 0, 70, -7 ,22, 34, N, None, None, ,  
02/09/2018 00:05, 0, 71, -7 ,21, 34, N, None, None, ,  
02/08/2018 23:58, 0, 71, -7 ,22, 33, N, None, None, ,  
02/08/2018 23:55, 1, 71, -7 ,17, 30, NE, None, None, ,  
02/08/2018 23:45, 1, 71, -7 ,22, 30, N, None, None, ,  
02/08/2018 23:43, 1, 71, -7 ,21, 30, N, None, None, ,  
02/08/2018 23:35, 1, 69, -7 ,21, 33, NE, None, None, ,  
02/08/2018 23:28, 1, 69, -7 ,22, 30, NE, None, None, ,  
02/08/2018 23:25, 1, 69, -7 ,24, 30, NE, None, None, ,  
02/08/2018 23:15, 1, 70, -7 ,22, 30, N, None, None, ,  
02/08/2018 23:13, 1, 70, -7 ,20, 27, NE, None, None, ,  
02/08/2018 23:04, 1, 69, -7 ,18, 27, NE, None, None, ,  
02/08/2018 22:58, 1, 68, -7 ,19, 27, N, None, None, ,  
02/08/2018 22:54, 1, 68, -7 ,21, 25, NE, None, None, ,  
02/08/2018 22:44, 1, 69, -7 ,17, 24, NE, None, None, ,  
02/08/2018 22:43, 1, 69, -7 ,16, 24, NE, None, None, ,  
02/08/2018 22:34, 1, 70, -6 ,19, 27, NE, None, None, ,  
02/08/2018 22:28, 1, 70, -7 ,14, 25, N, None, None, ,  
02/08/2018 22:24, 1, 69, -7 ,20, 30, N, None, None, ,  
02/08/2018 22:14, 1, 70, -6 ,17, 28, NE, None, None, ,  
02/08/2018 22:13, 1, 70, -7 ,20, 28, NE, None, None, ,  
02/08/2018 22:04, 1, 70, -7 ,20, 27, NE, None, None, ,  
02/08/2018 21:58, 1, 70, -7 ,18, 30, NE, None, None, ,  
02/08/2018 21:54, 1, 70, -7 ,22, 30, NE, None, None, ,  
02/08/2018 21:44, 1, 70, -7 ,21, 26, N, None, None, ,  
02/08/2018 21:43, 1, 70, -7 ,19, 26, NE, None, None, ,  
02/08/2018 21:34, 1, 69, -7 ,15, 29, NE, None, None, ,  
02/08/2018 21:28, 1, 69, -7 ,22, 29, NE, None, None, ,  
02/08/2018 21:24, 1, 68, -7 ,19, 26, N, None, None, ,  
02/08/2018 21:14, 1, 69, -7 ,17, 27, N, None, None, ,  
02/08/2018 21:13, 1, 69, -7 ,15, 27, N, None, None, ,  
02/08/2018 21:04, 1, 68, -7 ,20, 28, N, None, None, ,  
02/08/2018 20:58, 1, 69, -7 ,24, 29, N, None, None, ,  
02/08/2018 20:54, 1, 71, -6 ,22, 30, N, None, None, ,  
02/08/2018 20:44, 1, 71, -6 ,22, 29, N, None, None, ,  
02/08/2018 20:43, 1, 71, -6 ,21, 29, N, None, None, ,  
02/08/2018 20:34, 1, 71, -6 ,22, 33, N, None, None, ,  
02/08/2018 20:28, 1, 70, -6 ,24, 33, N, None, None, ,  
02/08/2018 20:24, 1, 70, -6 ,25, 33, N, None, None, ,  
02/08/2018 20:14, 1, 70, -6 ,20, 30, N, None, None, ,  
02/08/2018 20:04, 1, 69, -6 ,17, 32, N, None, None, ,  
02/08/2018 19:58, 2, 70, -6 ,22, 32, NE, None, None, ,  
02/08/2018 19:54, 2, 69, -6 ,19, 32, N, None, None, ,  
Change End Date:

Copyright © 1998-2015 Vaisala, Inc.
All Rights Reserved
Send comments about the data to:
SCAN Web ® is a registered trademark of Vaisala, Inc.
SCAN Web Version 6.0